sensor_id;sensor_type;location;lat;lon;timestamp;temperature;humidity
21035;DHT22;10676;50.848;3.272;2023-03-01T00:01:23;-0.40;99.90
21035;DHT22;10676;50.848;3.272;2023-03-01T00:03:50;-0.40;99.90
21035;DHT22;10676;50.848;3.272;2023-03-01T00:06:16;-0.40;99.90
21035;DHT22;10676;50.848;3.272;2023-03-01T00:08:42;-0.50;99.90
21035;DHT22;10676;50.848;3.272;2023-03-01T00:11:09;-0.50;99.90
21035;DHT22;10676;50.848;3.272;2023-03-01T00:13:36;-0.60;99.90
21035;DHT22;10676;50.848;3.272;2023-03-01T00:16:07;-0.70;99.90
21035;DHT22;10676;50.848;3.272;2023-03-01T00:18:33;-0.70;99.90
21035;DHT22;10676;50.848;3.272;2023-03-01T00:20:59;-0.70;99.90
21035;DHT22;10676;50.848;3.272;2023-03-01T00:23:25;-0.80;99.90
21035;DHT22;10676;50.848;3.272;2023-03-01T00:25:51;-0.80;99.90
21035;DHT22;10676;50.848;3.272;2023-03-01T00:28:18;-0.80;99.90
21035;DHT22;10676;50.848;3.272;2023-03-01T00:30:44;-0.80;99.90
21035;DHT22;10676;50.848;3.272;2023-03-01T00:33:10;-0.90;99.90
21035;DHT22;10676;50.848;3.272;2023-03-01T00:35:36;-0.90;99.90
21035;DHT22;10676;50.848;3.272;2023-03-01T00:38:02;-1.00;99.90
21035;DHT22;10676;50.848;3.272;2023-03-01T00:40:29;-1.00;99.90
21035;DHT22;10676;50.848;3.272;2023-03-01T00:42:56;-0.90;99.90
21035;DHT22;10676;50.848;3.272;2023-03-01T00:45:21;-0.90;99.90
21035;DHT22;10676;50.848;3.272;2023-03-01T00:47:48;-1.00;99.90
21035;DHT22;10676;50.848;3.272;2023-03-01T00:50:14;-1.00;99.90
21035;DHT22;10676;50.848;3.272;2023-03-01T00:52:40;-1.00;99.90
21035;DHT22;10676;50.848;3.272;2023-03-01T00:55:06;-1.00;99.90
21035;DHT22;10676;50.848;3.272;2023-03-01T00:57:32;-0.90;99.90
21035;DHT22;10676;50.848;3.272;2023-03-01T00:59:59;-0.80;99.90
21035;DHT22;10676;50.848;3.272;2023-03-01T01:02:24;-0.80;99.90
21035;DHT22;10676;50.848;3.272;2023-03-01T01:04:50;-0.70;99.90
21035;DHT22;10676;50.848;3.272;2023-03-01T01:07:16;-0.60;99.90
21035;DHT22;10676;50.848;3.272;2023-03-01T01:09:42;-0.60;99.90
21035;DHT22;10676;50.848;3.272;2023-03-01T01:12:08;-0.60;99.90
21035;DHT22;10676;50.848;3.272;2023-03-01T01:14:34;-0.60;99.90
21035;DHT22;10676;50.848;3.272;2023-03-01T01:17:00;-0.60;99.90
21035;DHT22;10676;50.848;3.272;2023-03-01T01:19:26;-0.60;99.90
21035;DHT22;10676;50.848;3.272;2023-03-01T01:21:52;-0.60;99.90
21035;DHT22;10676;50.848;3.272;2023-03-01T01:24:18;-0.60;99.90
21035;DHT22;10676;50.848;3.272;2023-03-01T01:26:43;-0.60;99.90
21035;DHT22;10676;50.848;3.272;2023-03-01T01:29:09;-0.60;99.90
21035;DHT22;10676;50.848;3.272;2023-03-01T01:31:37;-0.60;99.90
21035;DHT22;10676;50.848;3.272;2023-03-01T01:34:04;-0.50;99.90
21035;DHT22;10676;50.848;3.272;2023-03-01T01:36:31;-0.50;99.90
21035;DHT22;10676;50.848;3.272;2023-03-01T01:38:56;-0.50;99.90
21035;DHT22;10676;50.848;3.272;2023-03-01T01:41:24;-0.50;99.90
21035;DHT22;10676;50.848;3.272;2023-03-01T01:44:23;-0.50;99.90
21035;DHT22;10676;50.848;3.272;2023-03-01T01:47:00;-0.50;99.90
21035;DHT22;10676;50.848;3.272;2023-03-01T01:49:45;-0.50;99.90
21035;DHT22;10676;50.848;3.272;2023-03-01T01:52:25;-0.60;99.90
21035;DHT22;10676;50.848;3.272;2023-03-01T01:57:29;-0.60;99.90
21035;DHT22;10676;50.848;3.272;2023-03-01T02:00:01;-0.70;99.90
21035;DHT22;10676;50.848;3.272;2023-03-01T02:02:28;-0.80;99.90
21035;DHT22;10676;50.848;3.272;2023-03-01T02:05:03;-0.80;99.90
21035;DHT22;10676;50.848;3.272;2023-03-01T02:07:38;-0.80;99.90
21035;DHT22;10676;50.848;3.272;2023-03-01T02:10:04;-0.80;99.90
21035;DHT22;10676;50.848;3.272;2023-03-01T02:12:31;-0.80;99.90
21035;DHT22;10676;50.848;3.272;2023-03-01T02:14:57;-0.80;99.90
21035;DHT22;10676;50.848;3.272;2023-03-01T02:17:23;-0.80;99.90
21035;DHT22;10676;50.848;3.272;2023-03-01T02:22:31;-0.60;99.90
21035;DHT22;10676;50.848;3.272;2023-03-01T02:25:03;-0.40;99.90
21035;DHT22;10676;50.848;3.272;2023-03-01T02:27:54;-0.50;99.90
21035;DHT22;10676;50.848;3.272;2023-03-01T02:30:24;-0.50;99.90
21035;DHT22;10676;50.848;3.272;2023-03-01T02:32:53;-0.50;99.90
21035;DHT22;10676;50.848;3.272;2023-03-01T02:35:20;-0.40;99.90
21035;DHT22;10676;50.848;3.272;2023-03-01T02:37:46;-0.30;99.90
21035;DHT22;10676;50.848;3.272;2023-03-01T02:40:17;-0.40;99.90
21035;DHT22;10676;50.848;3.272;2023-03-01T02:42:55;-0.40;99.90
21035;DHT22;10676;50.848;3.272;2023-03-01T02:45:21;-0.50;99.90
21035;DHT22;10676;50.848;3.272;2023-03-01T02:47:48;-0.40;99.90
21035;DHT22;10676;50.848;3.272;2023-03-01T02:53:00;-0.50;99.90
21035;DHT22;10676;50.848;3.272;2023-03-01T02:55:29;-0.50;99.90
21035;DHT22;10676;50.848;3.272;2023-03-01T02:57:55;-0.50;99.90
21035;DHT22;10676;50.848;3.272;2023-03-01T03:00:26;-0.50;99.90
21035;DHT22;10676;50.848;3.272;2023-03-01T03:02:54;-0.50;99.90
21035;DHT22;10676;50.848;3.272;2023-03-01T03:05:30;-0.50;99.90
21035;DHT22;10676;50.848;3.272;2023-03-01T03:07:57;-0.60;99.90
21035;DHT22;10676;50.848;3.272;2023-03-01T03:10:27;-0.60;99.90
21035;DHT22;10676;50.848;3.272;2023-03-01T03:13:05;-0.60;99.90
21035;DHT22;10676;50.848;3.272;2023-03-01T03:15:32;-0.60;99.90
21035;DHT22;10676;50.848;3.272;2023-03-01T03:18:03;-0.60;99.90
21035;DHT22;10676;50.848;3.272;2023-03-01T03:20:30;-0.60;99.90
21035;DHT22;10676;50.848;3.272;2023-03-01T03:22:57;-0.50;99.90
21035;DHT22;10676;50.848;3.272;2023-03-01T03:25:25;-0.60;99.90
21035;DHT22;10676;50.848;3.272;2023-03-01T03:27:52;-0.50;99.90
21035;DHT22;10676;50.848;3.272;2023-03-01T03:30:24;-0.40;99.90
21035;DHT22;10676;50.848;3.272;2023-03-01T03:32:50;-0.50;99.90
21035;DHT22;10676;50.848;3.272;2023-03-01T03:35:31;-0.60;99.90
21035;DHT22;10676;50.848;3.272;2023-03-01T03:37:59;-0.50;99.90
21035;DHT22;10676;50.848;3.272;2023-03-01T03:40:33;-0.50;99.90
21035;DHT22;10676;50.848;3.272;2023-03-01T03:43:00;-0.50;99.90
21035;DHT22;10676;50.848;3.272;2023-03-01T03:45:25;-0.40;99.90
21035;DHT22;10676;50.848;3.272;2023-03-01T03:47:51;-0.50;99.90
21035;DHT22;10676;50.848;3.272;2023-03-01T03:50:17;-0.50;99.90
21035;DHT22;10676;50.848;3.272;2023-03-01T03:52:43;-0.60;99.90
21035;DHT22;10676;50.848;3.272;2023-03-01T03:55:10;-0.60;99.90
21035;DHT22;10676;50.848;3.272;2023-03-01T03:57:42;-0.60;99.90
21035;DHT22;10676;50.848;3.272;2023-03-01T04:00:12;-0.60;99.90
21035;DHT22;10676;50.848;3.272;2023-03-01T04:02:41;-0.60;99.90
21035;DHT22;10676;50.848;3.272;2023-03-01T04:05:08;-0.60;99.90
21035;DHT22;10676;50.848;3.272;2023-03-01T04:07:38;-0.60;99.90
21035;DHT22;10676;50.848;3.272;2023-03-01T04:10:05;-0.60;99.90
21035;DHT22;10676;50.848;3.272;2023-03-01T04:12:32;-0.60;99.90
21035;DHT22;10676;50.848;3.272;2023-03-01T04:15:00;-0.50;99.90
21035;DHT22;10676;50.848;3.272;2023-03-01T04:17:25;-0.60;99.90
21035;DHT22;10676;50.848;3.272;2023-03-01T04:19:51;-0.50;99.90
21035;DHT22;10676;50.848;3.272;2023-03-01T04:22:17;-0.60;99.90
21035;DHT22;10676;50.848;3.272;2023-03-01T04:24:44;-0.60;99.90
21035;DHT22;10676;50.848;3.272;2023-03-01T04:27:11;-0.60;99.90
21035;DHT22;10676;50.848;3.272;2023-03-01T04:29:36;-0.60;99.90
21035;DHT22;10676;50.848;3.272;2023-03-01T04:32:02;-0.60;99.90
21035;DHT22;10676;50.848;3.272;2023-03-01T04:34:29;-0.70;99.90
21035;DHT22;10676;50.848;3.272;2023-03-01T04:36:55;-0.60;99.90
21035;DHT22;10676;50.848;3.272;2023-03-01T04:39:21;-0.70;99.90
21035;DHT22;10676;50.848;3.272;2023-03-01T04:41:47;-0.70;99.90
21035;DHT22;10676;50.848;3.272;2023-03-01T04:44:12;-0.70;99.90
21035;DHT22;10676;50.848;3.272;2023-03-01T04:46:38;-0.60;99.90
21035;DHT22;10676;50.848;3.272;2023-03-01T04:49:04;-0.60;99.90
21035;DHT22;10676;50.848;3.272;2023-03-01T04:51:30;-0.70;99.90
21035;DHT22;10676;50.848;3.272;2023-03-01T04:53:58;-0.70;99.90
21035;DHT22;10676;50.848;3.272;2023-03-01T04:56:24;-0.70;99.90
21035;DHT22;10676;50.848;3.272;2023-03-01T04:58:49;-0.80;99.90
21035;DHT22;10676;50.848;3.272;2023-03-01T05:01:20;-0.80;99.90
21035;DHT22;10676;50.848;3.272;2023-03-01T05:03:55;-0.80;99.90
21035;DHT22;10676;50.848;3.272;2023-03-01T05:06:20;-0.70;99.90
21035;DHT22;10676;50.848;3.272;2023-03-01T05:08:46;-0.80;99.90
21035;DHT22;10676;50.848;3.272;2023-03-01T05:11:12;-0.80;99.90
21035;DHT22;10676;50.848;3.272;2023-03-01T05:13:38;-0.80;99.90
21035;DHT22;10676;50.848;3.272;2023-03-01T05:16:06;-0.90;99.90
21035;DHT22;10676;50.848;3.272;2023-03-01T05:18:33;-0.90;99.90
21035;DHT22;10676;50.848;3.272;2023-03-01T05:21:07;-0.90;99.90
21035;DHT22;10676;50.848;3.272;2023-03-01T05:23:34;-0.90;99.90
21035;DHT22;10676;50.848;3.272;2023-03-01T05:26:01;-1.00;99.90
21035;DHT22;10676;50.848;3.272;2023-03-01T05:28:29;-0.90;99.90
21035;DHT22;10676;50.848;3.272;2023-03-01T05:30:56;-1.00;99.90
21035;DHT22;10676;50.848;3.272;2023-03-01T05:33:22;-1.00;99.90
21035;DHT22;10676;50.848;3.272;2023-03-01T05:35:48;-1.00;99.90
21035;DHT22;10676;50.848;3.272;2023-03-01T05:38:15;-0.90;99.90
21035;DHT22;10676;50.848;3.272;2023-03-01T05:40:45;-0.90;99.90
21035;DHT22;10676;50.848;3.272;2023-03-01T05:43:13;-0.90;99.90
21035;DHT22;10676;50.848;3.272;2023-03-01T05:45:40;-0.80;99.90
21035;DHT22;10676;50.848;3.272;2023-03-01T05:48:06;-0.90;99.90
21035;DHT22;10676;50.848;3.272;2023-03-01T05:50:35;-0.90;99.90
21035;DHT22;10676;50.848;3.272;2023-03-01T05:55:29;-0.90;99.90
21035;DHT22;10676;50.848;3.272;2023-03-01T05:57:59;-1.00;99.90
21035;DHT22;10676;50.848;3.272;2023-03-01T06:00:25;-1.00;99.90
21035;DHT22;10676;50.848;3.272;2023-03-01T06:02:51;-1.00;99.90
21035;DHT22;10676;50.848;3.272;2023-03-01T06:05:19;-1.10;99.90
21035;DHT22;10676;50.848;3.272;2023-03-01T06:07:45;-1.10;99.90
21035;DHT22;10676;50.848;3.272;2023-03-01T06:10:12;-1.10;99.90
21035;DHT22;10676;50.848;3.272;2023-03-01T06:12:39;-1.20;99.90
21035;DHT22;10676;50.848;3.272;2023-03-01T06:15:05;-1.20;99.90
21035;DHT22;10676;50.848;3.272;2023-03-01T06:17:33;-1.30;99.90
21035;DHT22;10676;50.848;3.272;2023-03-01T06:20:04;-1.10;99.90
21035;DHT22;10676;50.848;3.272;2023-03-01T06:22:30;-1.30;99.90
21035;DHT22;10676;50.848;3.272;2023-03-01T06:24:56;-1.40;99.90
21035;DHT22;10676;50.848;3.272;2023-03-01T06:27:21;-1.30;99.90
21035;DHT22;10676;50.848;3.272;2023-03-01T06:29:47;-1.50;99.90
21035;DHT22;10676;50.848;3.272;2023-03-01T06:32:13;-1.40;99.90
21035;DHT22;10676;50.848;3.272;2023-03-01T06:34:38;-1.50;99.90
21035;DHT22;10676;50.848;3.272;2023-03-01T06:37:05;-1.50;99.90
21035;DHT22;10676;50.848;3.272;2023-03-01T06:39:32;-1.50;99.90
21035;DHT22;10676;50.848;3.272;2023-03-01T06:41:58;-1.50;99.90
21035;DHT22;10676;50.848;3.272;2023-03-01T06:44:23;-1.40;99.90
21035;DHT22;10676;50.848;3.272;2023-03-01T06:46:49;-1.40;99.90
21035;DHT22;10676;50.848;3.272;2023-03-01T06:49:15;-1.20;99.90
21035;DHT22;10676;50.848;3.272;2023-03-01T06:51:41;-1.00;99.90
21035;DHT22;10676;50.848;3.272;2023-03-01T06:54:07;-0.50;99.90
21035;DHT22;10676;50.848;3.272;2023-03-01T06:56:33;0.10;99.90
21035;DHT22;10676;50.848;3.272;2023-03-01T06:58:58;0.70;99.90
21035;DHT22;10676;50.848;3.272;2023-03-01T07:01:24;1.10;99.90
21035;DHT22;10676;50.848;3.272;2023-03-01T07:03:50;1.40;99.90
21035;DHT22;10676;50.848;3.272;2023-03-01T07:06:15;1.70;99.90
21035;DHT22;10676;50.848;3.272;2023-03-01T07:08:43;2.30;99.90
21035;DHT22;10676;50.848;3.272;2023-03-01T07:11:08;2.90;99.90
21035;DHT22;10676;50.848;3.272;2023-03-01T07:13:34;3.60;99.90
21035;DHT22;10676;50.848;3.272;2023-03-01T07:16:00;4.40;99.90
21035;DHT22;10676;50.848;3.272;2023-03-01T07:18:25;5.10;99.90
21035;DHT22;10676;50.848;3.272;2023-03-01T07:20:51;5.80;99.90
21035;DHT22;10676;50.848;3.272;2023-03-01T07:23:17;6.50;99.90
21035;DHT22;10676;50.848;3.272;2023-03-01T07:25:42;7.10;99.90
21035;DHT22;10676;50.848;3.272;2023-03-01T07:28:08;7.70;99.90
21035;DHT22;10676;50.848;3.272;2023-03-01T07:30:33;8.30;99.90
21035;DHT22;10676;50.848;3.272;2023-03-01T07:32:59;8.80;99.90
21035;DHT22;10676;50.848;3.272;2023-03-01T07:35:26;9.40;99.90
21035;DHT22;10676;50.848;3.272;2023-03-01T07:37:52;10.00;99.90
21035;DHT22;10676;50.848;3.272;2023-03-01T07:40:18;10.40;99.90
21035;DHT22;10676;50.848;3.272;2023-03-01T07:42:44;10.80;99.90
21035;DHT22;10676;50.848;3.272;2023-03-01T07:45:10;11.30;99.90
21035;DHT22;10676;50.848;3.272;2023-03-01T07:47:36;11.90;99.90
21035;DHT22;10676;50.848;3.272;2023-03-01T07:50:03;12.50;99.90
21035;DHT22;10676;50.848;3.272;2023-03-01T07:52:29;13.00;99.90
21035;DHT22;10676;50.848;3.272;2023-03-01T07:54:56;13.50;99.90
21035;DHT22;10676;50.848;3.272;2023-03-01T07:57:21;13.90;99.90
21035;DHT22;10676;50.848;3.272;2023-03-01T07:59:47;14.10;99.90
21035;DHT22;10676;50.848;3.272;2023-03-01T08:02:13;14.20;99.90
21035;DHT22;10676;50.848;3.272;2023-03-01T08:04:40;14.20;99.90
21035;DHT22;10676;50.848;3.272;2023-03-01T08:07:06;14.30;99.90
21035;DHT22;10676;50.848;3.272;2023-03-01T08:09:34;14.30;99.90
21035;DHT22;10676;50.848;3.272;2023-03-01T08:12:00;14.50;98.90
21035;DHT22;10676;50.848;3.272;2023-03-01T08:14:26;14.50;98.00
21035;DHT22;10676;50.848;3.272;2023-03-01T08:16:52;14.60;97.50
21035;DHT22;10676;50.848;3.272;2023-03-01T08:19:18;14.80;96.80
21035;DHT22;10676;50.848;3.272;2023-03-01T08:21:43;14.90;96.10
21035;DHT22;10676;50.848;3.272;2023-03-01T08:24:09;15.10;94.70
21035;DHT22;10676;50.848;3.272;2023-03-01T08:26:35;15.00;93.90
21035;DHT22;10676;50.848;3.272;2023-03-01T08:29:02;14.90;93.10
21035;DHT22;10676;50.848;3.272;2023-03-01T08:31:33;14.80;92.90
21035;DHT22;10676;50.848;3.272;2023-03-01T08:34:03;14.80;92.40
21035;DHT22;10676;50.848;3.272;2023-03-01T08:36:36;14.70;91.10
21035;DHT22;10676;50.848;3.272;2023-03-01T08:39:03;14.60;90.60
21035;DHT22;10676;50.848;3.272;2023-03-01T08:41:29;14.50;90.70
21035;DHT22;10676;50.848;3.272;2023-03-01T08:43:55;14.50;90.20
21035;DHT22;10676;50.848;3.272;2023-03-01T08:46:28;14.40;90.10
21035;DHT22;10676;50.848;3.272;2023-03-01T08:48:55;14.40;89.80
21035;DHT22;10676;50.848;3.272;2023-03-01T08:51:21;14.40;90.00
21035;DHT22;10676;50.848;3.272;2023-03-01T08:53:48;14.40;89.10
21035;DHT22;10676;50.848;3.272;2023-03-01T08:56:14;14.40;88.50
21035;DHT22;10676;50.848;3.272;2023-03-01T08:58:46;14.50;88.20
21035;DHT22;10676;50.848;3.272;2023-03-01T09:01:16;14.60;88.70
21035;DHT22;10676;50.848;3.272;2023-03-01T09:03:42;14.90;86.70
21035;DHT22;10676;50.848;3.272;2023-03-01T09:06:09;15.10;86.30
21035;DHT22;10676;50.848;3.272;2023-03-01T09:08:39;15.40;84.80
21035;DHT22;10676;50.848;3.272;2023-03-01T09:11:06;15.40;82.40
21035;DHT22;10676;50.848;3.272;2023-03-01T09:13:33;15.40;82.60
21035;DHT22;10676;50.848;3.272;2023-03-01T09:16:01;15.50;82.30
21035;DHT22;10676;50.848;3.272;2023-03-01T09:18:27;15.60;79.30
21035;DHT22;10676;50.848;3.272;2023-03-01T09:20:59;15.60;79.40
21035;DHT22;10676;50.848;3.272;2023-03-01T09:23:25;15.60;79.30
21035;DHT22;10676;50.848;3.272;2023-03-01T09:25:52;15.60;78.50
21035;DHT22;10676;50.848;3.272;2023-03-01T09:28:18;15.70;78.80
21035;DHT22;10676;50.848;3.272;2023-03-01T09:30:43;15.80;77.50
21035;DHT22;10676;50.848;3.272;2023-03-01T09:33:10;15.80;76.80
21035;DHT22;10676;50.848;3.272;2023-03-01T09:35:40;15.90;77.10
21035;DHT22;10676;50.848;3.272;2023-03-01T09:38:11;16.00;76.50
21035;DHT22;10676;50.848;3.272;2023-03-01T09:40:42;16.10;76.70
21035;DHT22;10676;50.848;3.272;2023-03-01T09:46:10;16.50;75.70
21035;DHT22;10676;50.848;3.272;2023-03-01T09:48:57;16.60;73.70
21035;DHT22;10676;50.848;3.272;2023-03-01T09:51:33;16.70;72.90
21035;DHT22;10676;50.848;3.272;2023-03-01T09:54:01;16.60;71.90
21035;DHT22;10676;50.848;3.272;2023-03-01T09:56:38;16.50;72.10
21035;DHT22;10676;50.848;3.272;2023-03-01T10:07:17;16.60;70.60
21035;DHT22;10676;50.848;3.272;2023-03-01T10:09:45;16.60;68.30
21035;DHT22;10676;50.848;3.272;2023-03-01T10:12:15;16.50;68.20
21035;DHT22;10676;50.848;3.272;2023-03-01T10:14:55;16.50;65.90
21035;DHT22;10676;50.848;3.272;2023-03-01T10:20:20;16.10;65.10
21035;DHT22;10676;50.848;3.272;2023-03-01T10:22:46;15.80;66.00
21035;DHT22;10676;50.848;3.272;2023-03-01T10:25:34;15.70;65.20
21035;DHT22;10676;50.848;3.272;2023-03-01T10:28:16;15.60;65.80
21035;DHT22;10676;50.848;3.272;2023-03-01T10:30:42;15.60;64.40
21035;DHT22;10676;50.848;3.272;2023-03-01T10:33:32;15.30;64.90
21035;DHT22;10676;50.848;3.272;2023-03-01T10:35:58;15.30;66.30
21035;DHT22;10676;50.848;3.272;2023-03-01T10:38:24;15.40;65.30
21035;DHT22;10676;50.848;3.272;2023-03-01T10:43:15;15.50;65.30
21035;DHT22;10676;50.848;3.272;2023-03-01T10:45:41;15.50;65.40
21035;DHT22;10676;50.848;3.272;2023-03-01T10:48:22;15.70;65.50
21035;DHT22;10676;50.848;3.272;2023-03-01T10:56:10;16.10;63.20
21035;DHT22;10676;50.848;3.272;2023-03-01T10:58:40;16.00;62.70
21035;DHT22;10676;50.848;3.272;2023-03-01T11:04:13;15.60;62.70
21035;DHT22;10676;50.848;3.272;2023-03-01T11:06:41;15.60;61.80
21035;DHT22;10676;50.848;3.272;2023-03-01T11:09:18;15.40;62.20
21035;DHT22;10676;50.848;3.272;2023-03-01T11:11:44;15.20;63.40
21035;DHT22;10676;50.848;3.272;2023-03-01T11:16:41;14.90;63.60
21035;DHT22;10676;50.848;3.272;2023-03-01T11:21:49;14.60;64.90
21035;DHT22;10676;50.848;3.272;2023-03-01T11:24:18;14.60;65.20
21035;DHT22;10676;50.848;3.272;2023-03-01T11:26:52;14.70;65.00
21035;DHT22;10676;50.848;3.272;2023-03-01T11:29:32;14.80;65.20
21035;DHT22;10676;50.848;3.272;2023-03-01T11:32:04;14.70;64.40
21035;DHT22;10676;50.848;3.272;2023-03-01T11:34:51;14.60;65.10
21035;DHT22;10676;50.848;3.272;2023-03-01T11:43:05;14.70;65.30
21035;DHT22;10676;50.848;3.272;2023-03-01T11:54:37;14.50;64.80
21035;DHT22;10676;50.848;3.272;2023-03-01T12:07:54;14.20;66.00
21035;DHT22;10676;50.848;3.272;2023-03-01T12:10:32;14.40;67.40
21035;DHT22;10676;50.848;3.272;2023-03-01T12:26:35;15.10;63.70
21035;DHT22;10676;50.848;3.272;2023-03-01T12:29:30;14.80;65.20
21035;DHT22;10676;50.848;3.272;2023-03-01T12:32:16;14.60;66.10
21035;DHT22;10676;50.848;3.272;2023-03-01T12:51:24;14.10;66.70
21035;DHT22;10676;50.848;3.272;2023-03-01T12:53:53;13.90;67.10
21035;DHT22;10676;50.848;3.272;2023-03-01T12:56:26;13.60;68.20
21035;DHT22;10676;50.848;3.272;2023-03-01T12:59:12;13.50;68.90
21035;DHT22;10676;50.848;3.272;2023-03-01T13:01:45;13.30;69.50
21035;DHT22;10676;50.848;3.272;2023-03-01T13:04:24;13.20;70.70
21035;DHT22;10676;50.848;3.272;2023-03-01T13:09:40;13.00;71.00
21035;DHT22;10676;50.848;3.272;2023-03-01T13:18:03;12.70;72.10
21035;DHT22;10676;50.848;3.272;2023-03-01T13:31:07;12.50;73.20
21035;DHT22;10676;50.848;3.272;2023-03-01T13:33:40;12.40;73.80
21035;DHT22;10676;50.848;3.272;2023-03-01T13:36:07;12.30;73.70
21035;DHT22;10676;50.848;3.272;2023-03-01T13:38:48;12.30;73.90
21035;DHT22;10676;50.848;3.272;2023-03-01T13:46:58;12.00;74.30
21035;DHT22;10676;50.848;3.272;2023-03-01T13:49:41;12.10;73.70
21035;DHT22;10676;50.848;3.272;2023-03-01T13:52:34;12.00;73.70
21035;DHT22;10676;50.848;3.272;2023-03-01T13:55:03;12.00;74.40
21035;DHT22;10676;50.848;3.272;2023-03-01T13:57:36;12.00;74.30
21035;DHT22;10676;50.848;3.272;2023-03-01T14:00:05;12.00;74.70
21035;DHT22;10676;50.848;3.272;2023-03-01T14:02:31;12.00;74.10
21035;DHT22;10676;50.848;3.272;2023-03-01T14:04:59;12.10;74.10
21035;DHT22;10676;50.848;3.272;2023-03-01T14:07:25;12.00;73.30
21035;DHT22;10676;50.848;3.272;2023-03-01T14:09:54;11.90;74.20
21035;DHT22;10676;50.848;3.272;2023-03-01T14:15:38;11.60;75.70
21035;DHT22;10676;50.848;3.272;2023-03-01T14:18:12;11.60;75.90
21035;DHT22;10676;50.848;3.272;2023-03-01T14:20:43;11.50;75.90
21035;DHT22;10676;50.848;3.272;2023-03-01T14:23:17;11.50;76.60
21035;DHT22;10676;50.848;3.272;2023-03-01T14:26:01;11.50;76.90
21035;DHT22;10676;50.848;3.272;2023-03-01T14:28:31;11.40;76.90
21035;DHT22;10676;50.848;3.272;2023-03-01T14:31:03;11.40;77.20
21035;DHT22;10676;50.848;3.272;2023-03-01T14:33:55;11.30;77.70
21035;DHT22;10676;50.848;3.272;2023-03-01T14:36:26;11.20;77.70
21035;DHT22;10676;50.848;3.272;2023-03-01T14:38:52;11.10;78.20
21035;DHT22;10676;50.848;3.272;2023-03-01T14:41:22;11.10;78.10
21035;DHT22;10676;50.848;3.272;2023-03-01T14:44:00;11.10;77.90
21035;DHT22;10676;50.848;3.272;2023-03-01T14:49:01;10.90;78.00
21035;DHT22;10676;50.848;3.272;2023-03-01T14:51:27;10.90;78.80
21035;DHT22;10676;50.848;3.272;2023-03-01T14:53:53;10.90;79.00
21035;DHT22;10676;50.848;3.272;2023-03-01T14:56:19;10.90;78.60
21035;DHT22;10676;50.848;3.272;2023-03-01T14:58:46;10.80;80.00
21035;DHT22;10676;50.848;3.272;2023-03-01T15:01:17;10.80;79.50
21035;DHT22;10676;50.848;3.272;2023-03-01T15:03:46;10.80;78.50
21035;DHT22;10676;50.848;3.272;2023-03-01T15:06:19;10.80;78.60
21035;DHT22;10676;50.848;3.272;2023-03-01T15:08:48;10.80;78.70
21035;DHT22;10676;50.848;3.272;2023-03-01T15:11:27;10.80;79.00
21035;DHT22;10676;50.848;3.272;2023-03-01T15:13:54;10.70;79.10
21035;DHT22;10676;50.848;3.272;2023-03-01T15:16:29;10.70;79.40
21035;DHT22;10676;50.848;3.272;2023-03-01T15:19:04;10.70;79.80
21035;DHT22;10676;50.848;3.272;2023-03-01T15:21:37;10.70;80.10
21035;DHT22;10676;50.848;3.272;2023-03-01T15:26:42;10.70;80.30
21035;DHT22;10676;50.848;3.272;2023-03-01T15:29:18;10.70;81.10
21035;DHT22;10676;50.848;3.272;2023-03-01T15:31:54;10.70;81.40
21035;DHT22;10676;50.848;3.272;2023-03-01T15:34:21;10.70;81.20
21035;DHT22;10676;50.848;3.272;2023-03-01T15:36:48;10.60;81.00
21035;DHT22;10676;50.848;3.272;2023-03-01T15:39:42;10.60;81.60
21035;DHT22;10676;50.848;3.272;2023-03-01T15:45:20;10.40;81.90
21035;DHT22;10676;50.848;3.272;2023-03-01T15:48:00;10.40;82.30
21035;DHT22;10676;50.848;3.272;2023-03-01T15:50:32;10.30;82.40
21035;DHT22;10676;50.848;3.272;2023-03-01T15:53:01;10.30;82.80
21035;DHT22;10676;50.848;3.272;2023-03-01T15:55:32;10.20;82.80
21035;DHT22;10676;50.848;3.272;2023-03-01T15:57:59;10.10;83.20
21035;DHT22;10676;50.848;3.272;2023-03-01T16:00:26;10.10;83.80
21035;DHT22;10676;50.848;3.272;2023-03-01T16:02:52;10.10;83.90
21035;DHT22;10676;50.848;3.272;2023-03-01T16:05:25;10.00;83.50
21035;DHT22;10676;50.848;3.272;2023-03-01T16:07:51;10.00;83.80
21035;DHT22;10676;50.848;3.272;2023-03-01T16:10:17;9.90;84.10
21035;DHT22;10676;50.848;3.272;2023-03-01T16:12:43;9.90;84.40
21035;DHT22;10676;50.848;3.272;2023-03-01T16:15:27;9.80;84.70
21035;DHT22;10676;50.848;3.272;2023-03-01T16:17:54;9.80;84.70
21035;DHT22;10676;50.848;3.272;2023-03-01T16:20:20;9.70;84.80
21035;DHT22;10676;50.848;3.272;2023-03-01T16:22:46;9.70;85.00
21035;DHT22;10676;50.848;3.272;2023-03-01T16:25:17;9.60;85.10
21035;DHT22;10676;50.848;3.272;2023-03-01T16:27:45;9.50;85.30
21035;DHT22;10676;50.848;3.272;2023-03-01T16:30:12;9.40;85.70
21035;DHT22;10676;50.848;3.272;2023-03-01T16:32:43;9.30;86.30
21035;DHT22;10676;50.848;3.272;2023-03-01T16:35:11;9.30;86.60
21035;DHT22;10676;50.848;3.272;2023-03-01T16:37:38;9.20;86.80
21035;DHT22;10676;50.848;3.272;2023-03-01T16:40:05;9.10;87.10
21035;DHT22;10676;50.848;3.272;2023-03-01T16:42:35;9.00;87.50
21035;DHT22;10676;50.848;3.272;2023-03-01T16:45:01;9.00;87.80
21035;DHT22;10676;50.848;3.272;2023-03-01T16:47:27;8.90;87.90
21035;DHT22;10676;50.848;3.272;2023-03-01T16:49:53;8.80;88.10
21035;DHT22;10676;50.848;3.272;2023-03-01T16:52:20;8.70;88.50
21035;DHT22;10676;50.848;3.272;2023-03-01T16:54:46;8.60;88.80
21035;DHT22;10676;50.848;3.272;2023-03-01T16:57:12;8.50;89.20
21035;DHT22;10676;50.848;3.272;2023-03-01T16:59:38;8.40;89.50
21035;DHT22;10676;50.848;3.272;2023-03-01T17:02:12;8.30;89.90
21035;DHT22;10676;50.848;3.272;2023-03-01T17:04:40;8.20;90.10
21035;DHT22;10676;50.848;3.272;2023-03-01T17:07:05;8.10;90.30
21035;DHT22;10676;50.848;3.272;2023-03-01T17:09:35;7.90;90.50
21035;DHT22;10676;50.848;3.272;2023-03-01T17:12:01;7.70;90.80
21035;DHT22;10676;50.848;3.272;2023-03-01T17:14:26;7.60;90.90
21035;DHT22;10676;50.848;3.272;2023-03-01T17:16:52;7.40;91.00
21035;DHT22;10676;50.848;3.272;2023-03-01T17:19:18;7.30;91.30
21035;DHT22;10676;50.848;3.272;2023-03-01T17:21:44;7.10;91.40
21035;DHT22;10676;50.848;3.272;2023-03-01T17:24:10;6.90;91.60
21035;DHT22;10676;50.848;3.272;2023-03-01T17:26:37;6.70;91.80
21035;DHT22;10676;50.848;3.272;2023-03-01T17:29:03;6.50;92.20
21035;DHT22;10676;50.848;3.272;2023-03-01T17:31:30;6.30;92.40
21035;DHT22;10676;50.848;3.272;2023-03-01T17:33:56;6.10;92.70
21035;DHT22;10676;50.848;3.272;2023-03-01T17:36:22;5.90;93.00
21035;DHT22;10676;50.848;3.272;2023-03-01T17:38:48;5.70;93.40
21035;DHT22;10676;50.848;3.272;2023-03-01T17:41:14;5.60;93.70
21035;DHT22;10676;50.848;3.272;2023-03-01T17:43:43;5.40;93.90
21035;DHT22;10676;50.848;3.272;2023-03-01T17:46:09;5.30;94.10
21035;DHT22;10676;50.848;3.272;2023-03-01T17:48:36;5.20;94.40
21035;DHT22;10676;50.848;3.272;2023-03-01T17:51:11;5.10;94.90
21035;DHT22;10676;50.848;3.272;2023-03-01T17:53:37;5.00;95.20
21035;DHT22;10676;50.848;3.272;2023-03-01T17:56:05;4.90;95.50